Date,TemperatureHighF,TemperatureAvgF,TemperatureLowF,DewpointHighF,DewpointAvgF,DewpointLowF,HumidityHigh,HumidityAvg,HumidityLow,PressureMaxIn,PressureMinIn,WindSpeedMaxMPH,WindSpeedAvgMPH,GustSpeedMaxMPH,PrecipitationSumIn
2013-1-1,35.5,30.0,16.5,27.0,17.0,4.0,76,60,45,29.92,29.69,9,2,0,0.09
2013-1-2,29.0,18.2,8.8,20.0,7.9,-4.0,81,65,55,30.11,29.89,6,1,0,0.09
2013-1-3,25.4,12.9,1.1,10.0,0.2,-6.0,80,59,27,30.14,29.98,4,0,0,0.00
2013-1-4,37.7,27.3,14.4,25.0,19.8,10.0,90,74,58,29.96,29.79,7,1,0,0.03
2013-1-5,42.0,32.7,20.6,26.0,21.0,17.0,87,64,39,30.25,29.82,5,1,0,0.08
2013-1-6,41.7,30.7,20.9,29.0,25.4,17.0,92,81,60,30.21,29.93,5,1,0,0.03
2013-1-7,36.8,29.8,20.0,28.0,21.9,16.0,93,74,46,30.39,29.95,5,0,0,0.01
2013-1-8,43.6,30.6,18.9,29.0,23.9,17.0,94,78,54,30.36,30.25,5,0,0,0.01
2013-1-9,43.0,33.0,20.9,35.0,27.3,20.0,95,80,56,30.40,29.98,17,1,0,0.00
2013-1-10,46.3,40.4,31.2,29.0,25.0,23.0,74,55,42,30.53,30.02,9,2,0,0.00
2013-1-11,38.9,31.9,24.2,34.0,27.4,22.0,97,84,68,30.52,30.22,0,0,0,0.12
2013-1-12,40.7,37.3,34.5,40.0,36.6,34.0,98,97,97,30.21,30.11,0,0,0,0.01
2013-1-13,48.2,42.7,36.7,47.0,42.2,36.0,99,98,94,30.14,29.97,3,0,0,0.01
2013-1-14,61.5,49.0,39.4,51.0,41.5,27.0,98,78,49,30.24,29.85,10,1,0,0.01
2013-1-15,41.5,35.8,29.7,30.0,25.9,24.0,84,68,52,30.31,30.21,5,0,0,0.01
2013-1-16,32.6,31.1,28.8,32.0,29.3,25.0,97,93,79,30.24,29.81,0,0,0,0.06
2013-1-17,40.8,32.2,25.1,35.0,26.4,11.0,97,80,48,30.09,29.82,9,0,0,0.35
2013-1-18,27.8,20.2,15.0,11.0,2.2,-4.0,68,47,31,30.43,30.07,10,1,0,0.35
2013-1-19,45.2,33.9,20.2,32.0,21.2,8.0,74,60,47,30.36,29.86,8,2,0,0.04
2013-1-20,52.2,39.6,27.3,33.0,25.2,11.0,75,58,34,29.91,29.51,13,4,0,0.04
2013-1-21,28.1,23.9,18.5,20.0,11.4,4.0,91,61,43,30.08,29.78,6,1,0,0.00
2013-1-22,24.5,19.0,11.2,20.0,9.1,-1.0,94,68,40,30.07,29.75,10,1,0,0.00
2013-1-23,15.3,9.4,3.9,0.0,-6.9,-12.0,69,49,29,30.13,30.06,11,1,0,0.00
2013-1-24,18.9,9.4,-0.7,-6.0,-9.2,-12.0,68,45,28,30.23,30.06,9,1,0,0.00
2013-1-25,23.5,15.5,6.7,7.0,-6.2,-11.0,62,39,24,30.30,30.06,6,1,0,0.00
2013-1-26,23.8,16.2,8.8,11.0,1.7,-7.0,88,57,29,30.23,30.01,6,1,0,0.00
2013-1-27,29.5,20.0,12.8,4.0,1.0,-4.0,64,46,28,30.46,30.22,6,1,0,0.00
2013-1-28,29.6,23.6,18.1,24.0,13.3,2.0,94,67,39,30.44,30.02,1,0,0,0.00
2013-1-29,33.4,29.0,24.0,31.0,26.7,22.0,96,91,84,30.18,30.02,2,0,0,0.13
2013-1-30,58.4,43.5,32.2,56.0,42.5,31.0,99,96,91,30.14,29.43,11,2,0,0.11
2013-1-31,60.9,46.4,29.4,58.0,37.5,17.0,96,73,41,29.56,28.93,14,5,0,0.71